sensor_id;sensor_type;location;lat;lon;timestamp;pressure;altitude;pressure_sealevel;temperature;humidity
58668;BME280;59852;43.086;25.634;2023-03-22T00:02:13;98561.75;;;10.46;90.82
58668;BME280;59852;43.086;25.634;2023-03-22T00:04:38;98556.47;;;10.70;89.51
58668;BME280;59852;43.086;25.634;2023-03-22T00:07:03;98552.84;;;10.83;88.07
58668;BME280;59852;43.086;25.634;2023-03-22T00:09:29;98554.00;;;10.79;89.11
58668;BME280;59852;43.086;25.634;2023-03-22T00:11:54;98565.38;;;10.56;89.89
58668;BME280;59852;43.086;25.634;2023-03-22T00:14:20;98561.09;;;10.31;91.75
58668;BME280;59852;43.086;25.634;2023-03-22T00:16:45;98561.78;;;10.57;90.80
58668;BME280;59852;43.086;25.634;2023-03-22T00:19:12;98556.88;;;10.76;89.79
58668;BME280;59852;43.086;25.634;2023-03-22T00:21:37;98566.25;;;10.79;88.96
58668;BME280;59852;43.086;25.634;2023-03-22T00:24:03;98556.84;;;10.65;89.10
58668;BME280;59852;43.086;25.634;2023-03-22T00:26:28;98555.59;;;10.82;88.35
58668;BME280;59852;43.086;25.634;2023-03-22T00:28:53;98552.91;;;10.71;89.26
58668;BME280;59852;43.086;25.634;2023-03-22T00:31:19;98541.31;;;10.86;88.69
58668;BME280;59852;43.086;25.634;2023-03-22T00:33:44;98543.94;;;10.86;88.05
58668;BME280;59852;43.086;25.634;2023-03-22T00:36:10;98551.38;;;10.79;88.53
58668;BME280;59852;43.086;25.634;2023-03-22T00:38:36;98554.72;;;10.81;88.89
58668;BME280;59852;43.086;25.634;2023-03-22T00:41:09;98554.91;;;10.56;91.31
58668;BME280;59852;43.086;25.634;2023-03-22T00:43:35;98554.81;;;10.69;90.47
58668;BME280;59852;43.086;25.634;2023-03-22T00:46:01;98544.19;;;10.59;91.86
58668;BME280;59852;43.086;25.634;2023-03-22T00:48:26;98547.84;;;10.45;92.70
58668;BME280;59852;43.086;25.634;2023-03-22T00:50:52;98543.91;;;10.40;92.70
58668;BME280;59852;43.086;25.634;2023-03-22T00:53:17;98536.59;;;10.56;92.23
58668;BME280;59852;43.086;25.634;2023-03-22T00:55:42;98528.44;;;10.72;91.40
58668;BME280;59852;43.086;25.634;2023-03-22T00:58:08;98539.75;;;10.72;90.78
58668;BME280;59852;43.086;25.634;2023-03-22T01:00:33;98545.50;;;10.05;94.63
58668;BME280;59852;43.086;25.634;2023-03-22T01:02:59;98551.09;;;9.88;96.53
58668;BME280;59852;43.086;25.634;2023-03-22T01:05:28;98550.78;;;10.41;94.46
58668;BME280;59852;43.086;25.634;2023-03-22T01:07:54;98548.47;;;10.60;92.86
58668;BME280;59852;43.086;25.634;2023-03-22T01:10:21;98546.97;;;10.33;93.12
58668;BME280;59852;43.086;25.634;2023-03-22T01:12:46;98552.78;;;10.13;94.98
58668;BME280;59852;43.086;25.634;2023-03-22T01:15:12;98551.25;;;10.34;94.99
58668;BME280;59852;43.086;25.634;2023-03-22T01:17:37;98552.84;;;10.48;94.29
58668;BME280;59852;43.086;25.634;2023-03-22T01:20:03;98553.44;;;10.52;93.44
58668;BME280;59852;43.086;25.634;2023-03-22T01:22:28;98552.72;;;10.50;93.38
58668;BME280;59852;43.086;25.634;2023-03-22T01:24:54;98547.31;;;10.64;93.33
58668;BME280;59852;43.086;25.634;2023-03-22T01:27:19;98547.66;;;10.59;93.55
58668;BME280;59852;43.086;25.634;2023-03-22T01:29:45;98553.75;;;10.36;94.13
58668;BME280;59852;43.086;25.634;2023-03-22T01:32:10;98542.28;;;10.50;94.52
58668;BME280;59852;43.086;25.634;2023-03-22T01:34:35;98518.06;;;10.70;92.52
58668;BME280;59852;43.086;25.634;2023-03-22T01:37:01;98516.31;;;10.36;92.95
58668;BME280;59852;43.086;25.634;2023-03-22T01:39:26;98527.38;;;10.39;92.72
58668;BME280;59852;43.086;25.634;2023-03-22T01:41:51;98534.78;;;10.45;93.07
58668;BME280;59852;43.086;25.634;2023-03-22T01:44:20;98536.16;;;10.62;92.80
58668;BME280;59852;43.086;25.634;2023-03-22T01:46:47;98530.53;;;10.55;93.01
58668;BME280;59852;43.086;25.634;2023-03-22T01:49:21;98526.72;;;10.59;92.84
58668;BME280;59852;43.086;25.634;2023-03-22T01:51:48;98539.22;;;10.56;93.86
58668;BME280;59852;43.086;25.634;2023-03-22T01:54:19;98537.69;;;10.65;93.43
58668;BME280;59852;43.086;25.634;2023-03-22T01:56:46;98533.56;;;10.73;93.29
58668;BME280;59852;43.086;25.634;2023-03-22T01:59:12;98529.03;;;10.75;92.40
58668;BME280;59852;43.086;25.634;2023-03-22T02:01:38;98531.63;;;10.64;92.00
58668;BME280;59852;43.086;25.634;2023-03-22T02:06:31;98529.00;;;10.53;93.41
58668;BME280;59852;43.086;25.634;2023-03-22T02:09:02;98525.19;;;10.57;92.86
58668;BME280;59852;43.086;25.634;2023-03-22T02:11:29;98530.31;;;10.11;94.89
58668;BME280;59852;43.086;25.634;2023-03-22T02:16:46;98520.91;;;10.56;93.57
58668;BME280;59852;43.086;25.634;2023-03-22T02:26:57;98528.53;;;10.11;95.78
58668;BME280;59852;43.086;25.634;2023-03-22T02:34:48;98531.19;;;10.35;95.04
58668;BME280;59852;43.086;25.634;2023-03-22T02:37:36;98534.59;;;10.12;94.98
58668;BME280;59852;43.086;25.634;2023-03-22T02:50:51;98541.78;;;10.45;93.48
58668;BME280;59852;43.086;25.634;2023-03-22T02:55:54;98542.50;;;10.47;93.34
58668;BME280;59852;43.086;25.634;2023-03-22T02:58:25;98548.00;;;10.31;93.97
58668;BME280;59852;43.086;25.634;2023-03-22T03:00:54;98550.25;;;10.24;94.32
58668;BME280;59852;43.086;25.634;2023-03-22T03:03:21;98543.69;;;10.43;94.44
58668;BME280;59852;43.086;25.634;2023-03-22T03:05:51;98548.41;;;10.38;94.10
58668;BME280;59852;43.086;25.634;2023-03-22T03:08:18;98562.31;;;10.38;94.57
58668;BME280;59852;43.086;25.634;2023-03-22T03:10:44;98569.44;;;10.36;93.83
58668;BME280;59852;43.086;25.634;2023-03-22T03:13:14;98569.00;;;10.42;94.36
58668;BME280;59852;43.086;25.634;2023-03-22T03:15:40;98561.75;;;10.46;94.85
58668;BME280;59852;43.086;25.634;2023-03-22T03:18:31;98555.06;;;10.42;94.07
58668;BME280;59852;43.086;25.634;2023-03-22T03:21:03;98538.22;;;10.22;95.13
58668;BME280;59852;43.086;25.634;2023-03-22T03:25:58;98540.69;;;10.36;94.06
58668;BME280;59852;43.086;25.634;2023-03-22T03:28:34;98535.69;;;10.20;94.13
58668;BME280;59852;43.086;25.634;2023-03-22T03:33:50;98537.69;;;10.29;94.57
58668;BME280;59852;43.086;25.634;2023-03-22T03:36:20;98541.88;;;10.19;94.87
58668;BME280;59852;43.086;25.634;2023-03-22T03:38:48;98539.97;;;10.21;94.54
58668;BME280;59852;43.086;25.634;2023-03-22T03:41:19;98541.72;;;10.10;94.94
58668;BME280;59852;43.086;25.634;2023-03-22T03:43:47;98545.03;;;10.24;94.03
58668;BME280;59852;43.086;25.634;2023-03-22T03:46:13;98551.31;;;10.22;94.20
58668;BME280;59852;43.086;25.634;2023-03-22T03:48:38;98551.69;;;10.28;94.65
58668;BME280;59852;43.086;25.634;2023-03-22T03:51:06;98559.09;;;10.34;93.63
58668;BME280;59852;43.086;25.634;2023-03-22T03:53:31;98550.44;;;10.34;93.15
58668;BME280;59852;43.086;25.634;2023-03-22T03:55:57;98560.09;;;10.45;92.78
58668;BME280;59852;43.086;25.634;2023-03-22T03:58:22;98561.84;;;9.96;94.74
58668;BME280;59852;43.086;25.634;2023-03-22T04:00:48;98567.53;;;10.14;96.38
58668;BME280;59852;43.086;25.634;2023-03-22T04:03:14;98558.41;;;10.20;94.75
58668;BME280;59852;43.086;25.634;2023-03-22T04:05:39;98565.88;;;10.13;95.01
58668;BME280;59852;43.086;25.634;2023-03-22T04:08:05;98561.00;;;10.32;94.52
58668;BME280;59852;43.086;25.634;2023-03-22T04:10:30;98559.06;;;10.11;95.44
58668;BME280;59852;43.086;25.634;2023-03-22T04:12:56;98556.97;;;10.16;94.55
58668;BME280;59852;43.086;25.634;2023-03-22T04:15:21;98559.53;;;9.92;95.98
58668;BME280;59852;43.086;25.634;2023-03-22T04:17:47;98564.81;;;9.79;98.51
58668;BME280;59852;43.086;25.634;2023-03-22T04:20:12;98573.31;;;10.06;97.27
58668;BME280;59852;43.086;25.634;2023-03-22T04:22:38;98579.19;;;10.21;95.03
58668;BME280;59852;43.086;25.634;2023-03-22T04:25:04;98575.56;;;10.24;94.12
58668;BME280;59852;43.086;25.634;2023-03-22T04:27:29;98575.44;;;10.25;94.95
58668;BME280;59852;43.086;25.634;2023-03-22T04:29:55;98576.53;;;10.23;94.74
58668;BME280;59852;43.086;25.634;2023-03-22T04:32:20;98579.72;;;10.26;94.38
58668;BME280;59852;43.086;25.634;2023-03-22T04:34:49;98575.97;;;10.18;94.44
58668;BME280;59852;43.086;25.634;2023-03-22T04:37:15;98590.72;;;10.19;95.48
58668;BME280;59852;43.086;25.634;2023-03-22T04:39:40;98579.25;;;10.09;96.09
58668;BME280;59852;43.086;25.634;2023-03-22T04:42:06;98586.31;;;10.19;95.49
58668;BME280;59852;43.086;25.634;2023-03-22T04:44:32;98581.75;;;10.10;96.19
58668;BME280;59852;43.086;25.634;2023-03-22T04:46:57;98578.56;;;10.30;95.32
58668;BME280;59852;43.086;25.634;2023-03-22T04:49:23;98576.69;;;10.32;94.15
58668;BME280;59852;43.086;25.634;2023-03-22T04:51:48;98580.06;;;10.09;95.25
58668;BME280;59852;43.086;25.634;2023-03-22T04:54:13;98581.91;;;10.32;94.45
58668;BME280;59852;43.086;25.634;2023-03-22T04:56:39;98586.66;;;10.15;95.49
58668;BME280;59852;43.086;25.634;2023-03-22T04:59:04;98592.25;;;10.21;95.18
58668;BME280;59852;43.086;25.634;2023-03-22T05:01:29;98596.47;;;10.11;95.33
58668;BME280;59852;43.086;25.634;2023-03-22T05:03:55;98598.13;;;10.12;94.29
58668;BME280;59852;43.086;25.634;2023-03-22T05:06:20;98604.25;;;10.00;96.16
58668;BME280;59852;43.086;25.634;2023-03-22T05:08:46;98611.56;;;10.07;96.04
58668;BME280;59852;43.086;25.634;2023-03-22T05:11:12;98611.41;;;10.22;96.15
58668;BME280;59852;43.086;25.634;2023-03-22T05:13:38;98614.13;;;10.20;96.09
58668;BME280;59852;43.086;25.634;2023-03-22T05:16:04;98615.19;;;10.18;95.76
58668;BME280;59852;43.086;25.634;2023-03-22T05:18:30;98623.50;;;9.99;96.78
58668;BME280;59852;43.086;25.634;2023-03-22T05:20:57;98615.72;;;10.10;97.16
58668;BME280;59852;43.086;25.634;2023-03-22T05:23:23;98620.22;;;10.08;97.64
58668;BME280;59852;43.086;25.634;2023-03-22T05:25:49;98625.50;;;10.19;96.54
58668;BME280;59852;43.086;25.634;2023-03-22T05:28:15;98621.78;;;10.11;95.84
58668;BME280;59852;43.086;25.634;2023-03-22T05:30:43;98629.50;;;10.12;95.77
58668;BME280;59852;43.086;25.634;2023-03-22T05:33:09;98629.72;;;10.09;97.38
58668;BME280;59852;43.086;25.634;2023-03-22T05:35:35;98642.88;;;10.20;95.98
58668;BME280;59852;43.086;25.634;2023-03-22T05:38:01;98644.03;;;10.29;94.85
58668;BME280;59852;43.086;25.634;2023-03-22T05:40:26;98648.09;;;10.33;95.02
58668;BME280;59852;43.086;25.634;2023-03-22T05:42:52;98650.53;;;10.23;96.11
58668;BME280;59852;43.086;25.634;2023-03-22T05:45:18;98640.47;;;10.30;96.33
58668;BME280;59852;43.086;25.634;2023-03-22T05:47:44;98649.25;;;10.29;96.38
58668;BME280;59852;43.086;25.634;2023-03-22T05:50:11;98657.22;;;10.27;96.37
58668;BME280;59852;43.086;25.634;2023-03-22T05:52:37;98655.75;;;10.11;97.20
58668;BME280;59852;43.086;25.634;2023-03-22T05:55:02;98657.75;;;10.07;98.83
58668;BME280;59852;43.086;25.634;2023-03-22T05:57:28;98664.06;;;9.79;100.00
58668;BME280;59852;43.086;25.634;2023-03-22T05:59:56;98661.53;;;9.90;100.00
58668;BME280;59852;43.086;25.634;2023-03-22T06:02:22;98667.22;;;10.21;98.94
58668;BME280;59852;43.086;25.634;2023-03-22T06:04:48;98666.50;;;10.19;97.10
58668;BME280;59852;43.086;25.634;2023-03-22T06:07:13;98675.53;;;10.02;96.57
58668;BME280;59852;43.086;25.634;2023-03-22T06:09:39;98682.25;;;9.81;94.78
58668;BME280;59852;43.086;25.634;2023-03-22T06:12:05;98681.94;;;9.72;94.53
58668;BME280;59852;43.086;25.634;2023-03-22T06:14:31;98689.28;;;9.55;94.87
58668;BME280;59852;43.086;25.634;2023-03-22T06:16:56;98694.47;;;9.67;94.61
58668;BME280;59852;43.086;25.634;2023-03-22T06:19:22;98702.50;;;9.52;94.24
58668;BME280;59852;43.086;25.634;2023-03-22T06:21:49;98702.09;;;9.45;94.52
58668;BME280;59852;43.086;25.634;2023-03-22T06:24:15;98699.59;;;9.82;94.70
58668;BME280;59852;43.086;25.634;2023-03-22T06:26:41;98698.84;;;9.80;94.40
58668;BME280;59852;43.086;25.634;2023-03-22T06:29:06;98699.91;;;9.77;93.73
58668;BME280;59852;43.086;25.634;2023-03-22T06:31:31;98702.00;;;9.85;93.41
58668;BME280;59852;43.086;25.634;2023-03-22T06:33:57;98702.81;;;9.72;94.56
58668;BME280;59852;43.086;25.634;2023-03-22T06:36:22;98710.66;;;9.47;94.24
58668;BME280;59852;43.086;25.634;2023-03-22T06:38:47;98713.06;;;9.63;94.56
58668;BME280;59852;43.086;25.634;2023-03-22T06:41:13;98712.44;;;9.59;92.60
58668;BME280;59852;43.086;25.634;2023-03-22T06:43:38;98715.44;;;9.15;95.89
58668;BME280;59852;43.086;25.634;2023-03-22T06:46:04;98714.50;;;9.29;95.67
58668;BME280;59852;43.086;25.634;2023-03-22T06:48:29;98727.09;;;9.09;95.64
58668;BME280;59852;43.086;25.634;2023-03-22T06:50:55;98732.41;;;9.08;96.83
58668;BME280;59852;43.086;25.634;2023-03-22T06:53:20;98733.47;;;9.18;96.53
58668;BME280;59852;43.086;25.634;2023-03-22T06:55:45;98745.66;;;9.57;94.74
58668;BME280;59852;43.086;25.634;2023-03-22T06:58:11;98740.75;;;9.65;94.86
58668;BME280;59852;43.086;25.634;2023-03-22T07:00:36;98756.25;;;9.29;95.04
58668;BME280;59852;43.086;25.634;2023-03-22T07:03:02;98765.00;;;9.55;94.78
58668;BME280;59852;43.086;25.634;2023-03-22T07:05:28;98773.38;;;9.33;95.18
58668;BME280;59852;43.086;25.634;2023-03-22T07:07:53;98770.50;;;9.50;94.08
58668;BME280;59852;43.086;25.634;2023-03-22T07:10:18;98782.72;;;9.62;94.50
58668;BME280;59852;43.086;25.634;2023-03-22T07:12:44;98786.19;;;9.23;95.40
58668;BME280;59852;43.086;25.634;2023-03-22T07:15:09;98780.44;;;9.18;96.40
58668;BME280;59852;43.086;25.634;2023-03-22T07:17:35;98765.06;;;9.40;95.22
58668;BME280;59852;43.086;25.634;2023-03-22T07:20:00;98758.84;;;9.68;93.99
58668;BME280;59852;43.086;25.634;2023-03-22T07:22:26;98755.06;;;9.47;92.01
58668;BME280;59852;43.086;25.634;2023-03-22T07:24:51;98741.78;;;9.50;91.91
58668;BME280;59852;43.086;25.634;2023-03-22T07:27:17;98736.22;;;9.42;92.04
58668;BME280;59852;43.086;25.634;2023-03-22T07:29:42;98735.50;;;9.40;91.20
58668;BME280;59852;43.086;25.634;2023-03-22T07:32:08;98743.22;;;9.29;93.36
58668;BME280;59852;43.086;25.634;2023-03-22T07:34:33;98748.88;;;9.48;92.14
58668;BME280;59852;43.086;25.634;2023-03-22T07:36:58;98757.47;;;9.10;93.82
58668;BME280;59852;43.086;25.634;2023-03-22T07:39:24;98757.88;;;9.44;92.59
58668;BME280;59852;43.086;25.634;2023-03-22T07:41:50;98764.66;;;9.59;92.78
58668;BME280;59852;43.086;25.634;2023-03-22T07:44:16;98760.03;;;9.25;92.38
58668;BME280;59852;43.086;25.634;2023-03-22T07:46:41;98762.75;;;9.36;92.31
58668;BME280;59852;43.086;25.634;2023-03-22T07:49:06;98770.09;;;9.56;91.70
58668;BME280;59852;43.086;25.634;2023-03-22T07:51:32;98768.88;;;9.22;93.05
58668;BME280;59852;43.086;25.634;2023-03-22T07:53:57;98769.00;;;9.33;95.61
58668;BME280;59852;43.086;25.634;2023-03-22T07:56:22;98769.31;;;9.29;95.37
58668;BME280;59852;43.086;25.634;2023-03-22T07:58:48;98768.13;;;9.20;95.72
58668;BME280;59852;43.086;25.634;2023-03-22T08:01:13;98771.47;;;9.22;96.69
58668;BME280;59852;43.086;25.634;2023-03-22T08:03:38;98775.44;;;9.55;94.47
58668;BME280;59852;43.086;25.634;2023-03-22T08:06:04;98773.47;;;9.18;95.36
58668;BME280;59852;43.086;25.634;2023-03-22T08:08:32;98774.50;;;9.56;94.10
58668;BME280;59852;43.086;25.634;2023-03-22T08:10:57;98774.72;;;9.91;92.13
58668;BME280;59852;43.086;25.634;2023-03-22T08:13:22;98770.31;;;9.91;92.31
58668;BME280;59852;43.086;25.634;2023-03-22T08:15:48;98766.13;;;10.01;91.98
58668;BME280;59852;43.086;25.634;2023-03-22T08:18:13;98765.53;;;9.98;91.98
58668;BME280;59852;43.086;25.634;2023-03-22T08:20:39;98757.25;;;9.78;91.72
58668;BME280;59852;43.086;25.634;2023-03-22T08:23:04;98765.44;;;9.87;93.20
58668;BME280;59852;43.086;25.634;2023-03-22T08:25:32;98763.50;;;9.63;92.83
58668;BME280;59852;43.086;25.634;2023-03-22T08:27:57;98751.75;;;9.96;93.82
58668;BME280;59852;43.086;25.634;2023-03-22T08:30:23;98745.75;;;10.45;91.01
58668;BME280;59852;43.086;25.634;2023-03-22T08:32:48;98742.19;;;10.70;89.58
58668;BME280;59852;43.086;25.634;2023-03-22T08:35:14;98743.81;;;10.59;89.79
58668;BME280;59852;43.086;25.634;2023-03-22T08:37:39;98753.22;;;10.62;89.46
58668;BME280;59852;43.086;25.634;2023-03-22T08:40:06;98753.91;;;10.77;89.62
58668;BME280;59852;43.086;25.634;2023-03-22T08:42:33;98748.66;;;10.77;89.79
58668;BME280;59852;43.086;25.634;2023-03-22T08:44:58;98750.50;;;10.87;88.64
58668;BME280;59852;43.086;25.634;2023-03-22T08:47:24;98750.69;;;10.97;88.00
58668;BME280;59852;43.086;25.634;2023-03-22T08:49:49;98757.63;;;10.85;87.93
58668;BME280;59852;43.086;25.634;2023-03-22T08:52:15;98753.72;;;10.67;88.96
58668;BME280;59852;43.086;25.634;2023-03-22T08:54:40;98757.53;;;10.50;88.42
58668;BME280;59852;43.086;25.634;2023-03-22T08:57:05;98760.78;;;10.54;87.68
58668;BME280;59852;43.086;25.634;2023-03-22T08:59:33;98764.06;;;10.69;87.60
58668;BME280;59852;43.086;25.634;2023-03-22T09:01:59;98767.44;;;10.58;87.90
58668;BME280;59852;43.086;25.634;2023-03-22T09:04:25;98773.44;;;10.47;90.62
58668;BME280;59852;43.086;25.634;2023-03-22T09:06:50;98764.97;;;10.80;88.65
58668;BME280;59852;43.086;25.634;2023-03-22T09:09:16;98770.13;;;11.06;87.23
58668;BME280;59852;43.086;25.634;2023-03-22T09:11:41;98763.53;;;11.00;86.16
58668;BME280;59852;43.086;25.634;2023-03-22T09:14:07;98775.75;;;11.12;85.91
58668;BME280;59852;43.086;25.634;2023-03-22T09:16:32;98781.25;;;10.97;86.48
58668;BME280;59852;43.086;25.634;2023-03-22T09:18:58;98778.19;;;11.03;86.21
58668;BME280;59852;43.086;25.634;2023-03-22T09:21:23;98780.94;;;11.01;85.00
58668;BME280;59852;43.086;25.634;2023-03-22T09:23:49;98782.47;;;11.04;86.81
58668;BME280;59852;43.086;25.634;2023-03-22T09:26:14;98781.91;;;10.87;90.17
58668;BME280;59852;43.086;25.634;2023-03-22T09:28:40;98779.47;;;10.73;86.97
58668;BME280;59852;43.086;25.634;2023-03-22T09:31:06;98781.41;;;10.46;87.72
58668;BME280;59852;43.086;25.634;2023-03-22T09:33:32;98779.59;;;10.59;86.53
58668;BME280;59852;43.086;25.634;2023-03-22T09:35:58;98781.00;;;10.76;86.04
58668;BME280;59852;43.086;25.634;2023-03-22T09:38:23;98777.59;;;10.62;88.67
58668;BME280;59852;43.086;25.634;2023-03-22T09:40:52;98771.34;;;10.52;88.05
58668;BME280;59852;43.086;25.634;2023-03-22T09:43:24;98773.06;;;10.77;88.98
58668;BME280;59852;43.086;25.634;2023-03-22T09:45:51;98772.34;;;10.99;86.81
58668;BME280;59852;43.086;25.634;2023-03-22T09:48:18;98769.53;;;10.89;86.17
58668;BME280;59852;43.086;25.634;2023-03-22T09:50:49;98773.84;;;10.54;89.66
58668;BME280;59852;43.086;25.634;2023-03-22T09:53:16;98778.97;;;10.92;86.95
58668;BME280;59852;43.086;25.634;2023-03-22T09:56:24;98780.19;;;10.75;87.56
58668;BME280;59852;43.086;25.634;2023-03-22T09:58:42;98773.56;;;10.82;86.37
58668;BME280;59852;43.086;25.634;2023-03-22T10:06:25;98778.56;;;10.85;85.06
58668;BME280;59852;43.086;25.634;2023-03-22T10:11:33;98786.38;;;10.98;84.13
58668;BME280;59852;43.086;25.634;2023-03-22T10:15:01;98783.44;;;11.03;84.43
58668;BME280;59852;43.086;25.634;2023-03-22T10:16:55;98780.19;;;11.23;84.58
58668;BME280;59852;43.086;25.634;2023-03-22T10:19:32;98787.38;;;11.32;84.77
58668;BME280;59852;43.086;25.634;2023-03-22T10:21:59;98783.41;;;11.27;84.54
58668;BME280;59852;43.086;25.634;2023-03-22T10:24:30;98775.84;;;11.11;84.65
58668;BME280;59852;43.086;25.634;2023-03-22T10:26:57;98780.31;;;11.22;85.79
58668;BME280;59852;43.086;25.634;2023-03-22T10:29:36;98778.63;;;10.73;86.79
58668;BME280;59852;43.086;25.634;2023-03-22T10:32:22;98774.22;;;10.97;86.78
58668;BME280;59852;43.086;25.634;2023-03-22T10:34:52;98773.41;;;10.97;86.40
58668;BME280;59852;43.086;25.634;2023-03-22T10:37:21;98770.44;;;11.25;85.49
58668;BME280;59852;43.086;25.634;2023-03-22T10:39:49;98774.53;;;11.40;83.96
58668;BME280;59852;43.086;25.634;2023-03-22T10:42:18;98771.81;;;11.42;82.98
58668;BME280;59852;43.086;25.634;2023-03-22T10:44:46;98765.22;;;11.01;84.83
58668;BME280;59852;43.086;25.634;2023-03-22T10:47:17;98775.78;;;11.24;85.38
58668;BME280;59852;43.086;25.634;2023-03-22T10:49:50;98767.31;;;11.44;84.75
58668;BME280;59852;43.086;25.634;2023-03-22T10:52:25;98762.53;;;11.49;84.08
58668;BME280;59852;43.086;25.634;2023-03-22T10:54:56;98761.72;;;11.48;83.76
58668;BME280;59852;43.086;25.634;2023-03-22T10:57:22;98758.97;;;11.50;83.53
58668;BME280;59852;43.086;25.634;2023-03-22T10:59:50;98762.09;;;11.55;83.93
58668;BME280;59852;43.086;25.634;2023-03-22T11:02:21;98766.81;;;11.50;85.48
58668;BME280;59852;43.086;25.634;2023-03-22T11:04:47;98762.75;;;11.35;85.29
58668;BME280;59852;43.086;25.634;2023-03-22T11:07:31;98760.31;;;11.56;85.49
58668;BME280;59852;43.086;25.634;2023-03-22T11:12:28;98753.16;;;11.11;86.83
58668;BME280;59852;43.086;25.634;2023-03-22T11:14:53;98746.69;;;11.39;86.85
58668;BME280;59852;43.086;25.634;2023-03-22T11:17:23;98741.81;;;11.46;86.62
58668;BME280;59852;43.086;25.634;2023-03-22T11:20:02;98746.75;;;11.51;86.92
58668;BME280;59852;43.086;25.634;2023-03-22T11:24:57;98745.31;;;11.58;84.39
58668;BME280;59852;43.086;25.634;2023-03-22T11:27:24;98754.59;;;11.51;83.81
58668;BME280;59852;43.086;25.634;2023-03-22T11:29:51;98743.06;;;11.29;85.99
58668;BME280;59852;43.086;25.634;2023-03-22T11:32:21;98741.41;;;11.63;85.33
58668;BME280;59852;43.086;25.634;2023-03-22T11:34:58;98745.13;;;11.72;83.77
58668;BME280;59852;43.086;25.634;2023-03-22T11:37:23;98747.66;;;11.85;81.91
58668;BME280;59852;43.086;25.634;2023-03-22T11:39:49;98737.78;;;12.11;80.74
58668;BME280;59852;43.086;25.634;2023-03-22T11:42:17;98739.22;;;12.15;80.91
58668;BME280;59852;43.086;25.634;2023-03-22T11:44:42;98731.94;;;12.07;80.84
58668;BME280;59852;43.086;25.634;2023-03-22T11:47:09;98733.97;;;11.81;82.39
58668;BME280;59852;43.086;25.634;2023-03-22T11:49:39;98729.69;;;12.02;80.55
58668;BME280;59852;43.086;25.634;2023-03-22T11:52:09;98727.31;;;12.22;79.60
58668;BME280;59852;43.086;25.634;2023-03-22T11:54:35;98722.66;;;12.14;79.40
58668;BME280;59852;43.086;25.634;2023-03-22T11:57:03;98732.28;;;12.36;80.02
58668;BME280;59852;43.086;25.634;2023-03-22T11:59:35;98726.44;;;12.44;79.84
58668;BME280;59852;43.086;25.634;2023-03-22T12:02:11;98727.66;;;12.17;78.64
58668;BME280;59852;43.086;25.634;2023-03-22T12:04:40;98724.31;;;12.15;79.73
58668;BME280;59852;43.086;25.634;2023-03-22T12:07:13;98726.81;;;12.28;78.78
58668;BME280;59852;43.086;25.634;2023-03-22T12:09:41;98722.78;;;12.01;80.32
58668;BME280;59852;43.086;25.634;2023-03-22T12:12:12;98719.06;;;12.26;80.32
58668;BME280;59852;43.086;25.634;2023-03-22T12:17:09;98719.66;;;12.19;78.16
58668;BME280;59852;43.086;25.634;2023-03-22T12:19:46;98715.59;;;12.26;77.39
58668;BME280;59852;43.086;25.634;2023-03-22T12:22:18;98722.16;;;12.31;77.89
58668;BME280;59852;43.086;25.634;2023-03-22T12:24:45;98718.59;;;12.21;76.94
58668;BME280;59852;43.086;25.634;2023-03-22T12:27:21;98715.16;;;12.21;78.36
58668;BME280;59852;43.086;25.634;2023-03-22T12:30:50;98721.81;;;11.91;79.14
58668;BME280;59852;43.086;25.634;2023-03-22T12:32:47;98715.91;;;11.65;80.60
58668;BME280;59852;43.086;25.634;2023-03-22T12:35:17;98716.91;;;11.98;78.69
58668;BME280;59852;43.086;25.634;2023-03-22T12:37:45;98716.13;;;11.51;79.88
58668;BME280;59852;43.086;25.634;2023-03-22T12:45:28;98715.75;;;11.91;78.11
58668;BME280;59852;43.086;25.634;2023-03-22T12:51:03;98721.03;;;11.67;79.75
58668;BME280;59852;43.086;25.634;2023-03-22T12:53:21;98725.31;;;11.68;78.66
58668;BME280;59852;43.086;25.634;2023-03-22T12:55:49;98733.28;;;11.20;80.58
58668;BME280;59852;43.086;25.634;2023-03-22T12:58:17;98726.41;;;11.30;79.32
58668;BME280;59852;43.086;25.634;2023-03-22T13:00:45;98726.94;;;11.46;78.23
58668;BME280;59852;43.086;25.634;2023-03-22T13:05:41;98725.84;;;11.38;76.86
58668;BME280;59852;43.086;25.634;2023-03-22T13:08:08;98722.00;;;11.66;76.64
58668;BME280;59852;43.086;25.634;2023-03-22T13:15:32;98721.69;;;11.93;75.63
58668;BME280;59852;43.086;25.634;2023-03-22T13:17:58;98727.06;;;12.02;75.85
58668;BME280;59852;43.086;25.634;2023-03-22T13:20:25;98717.53;;;11.90;74.88
58668;BME280;59852;43.086;25.634;2023-03-22T13:27:54;98721.03;;;11.78;74.01
58668;BME280;59852;43.086;25.634;2023-03-22T13:33:25;98717.00;;;11.74;75.74
58668;BME280;59852;43.086;25.634;2023-03-22T13:35:55;98719.19;;;11.80;76.04
58668;BME280;59852;43.086;25.634;2023-03-22T13:38:26;98718.16;;;11.70;76.42
58668;BME280;59852;43.086;25.634;2023-03-22T13:40:58;98710.38;;;11.81;76.66
58668;BME280;59852;43.086;25.634;2023-03-22T13:43:25;98721.31;;;11.86;76.53
58668;BME280;59852;43.086;25.634;2023-03-22T13:48:39;98718.72;;;11.86;77.82
58668;BME280;59852;43.086;25.634;2023-03-22T13:51:20;98723.13;;;11.86;78.29
58668;BME280;59852;43.086;25.634;2023-03-22T13:56:45;98727.94;;;11.68;76.42
58668;BME280;59852;43.086;25.634;2023-03-22T14:02:03;98722.28;;;11.85;75.10
58668;BME280;59852;43.086;25.634;2023-03-22T14:09:49;98721.66;;;11.70;76.02
58668;BME280;59852;43.086;25.634;2023-03-22T14:12:23;98722.22;;;11.52;77.19
58668;BME280;59852;43.086;25.634;2023-03-22T14:14:55;98714.44;;;11.50;77.33
58668;BME280;59852;43.086;25.634;2023-03-22T14:19:46;98724.13;;;11.14;81.63
58668;BME280;59852;43.086;25.634;2023-03-22T14:22:16;98719.97;;;11.23;81.16
58668;BME280;59852;43.086;25.634;2023-03-22T14:24:45;98716.53;;;11.23;82.02
58668;BME280;59852;43.086;25.634;2023-03-22T14:27:11;98726.69;;;11.03;83.14